Time;durP1;ratioP1;P1;durP2;ratioP2;P2;SDS_P1;SDS_P2;PMS_P1;PMS_P2;Temp;Humidity;BMP_temperature;BMP_pressure;BME280_temperature;BME280_humidity;BME280_pressure;Samples;Min_cycle;Max_cycle;Signal;HPM_P1;HPM_P2
2024/03/01 00:00:01;;;;;;;5.93;1.00;;;;;;;;;;5048968;28;20045;-71
2024/03/01 00:02:27;;;;;;;13.60;1.10;;;;;;;;;;5044799;28;20038;-70
2024/03/01 00:04:52;;;;;;;11.10;1.40;;;;;;;;;;5048200;28;20051;-69
2024/03/01 00:07:17;;;;;;;14.50;1.42;;;;;;;;;;5048176;28;20036;-70
2024/03/01 00:09:43;;;;;;;8.85;1.60;;;;;;;;;;5053142;28;20047;-69
2024/03/01 00:12:10;;;;;;;9.70;1.83;;;;;;;;;;5034749;28;20067;-69
2024/03/01 00:14:35;;;;;;;10.73;1.23;;;;;;;;;;5050926;28;20064;-69
2024/03/01 00:17:00;;;;;;;4.53;1.50;;;;;;;;;;5052798;28;20503;-69
2024/03/01 00:19:26;;;;;;;14.18;1.15;;;;;;;;;;5035064;28;20484;-71
2024/03/01 00:21:51;;;;;;;2.83;0.90;;;;;;;;;;5053233;28;20056;-69
2024/03/01 00:24:16;;;;;;;4.88;1.83;;;;;;;;;;5052419;28;20059;-70
2024/03/01 00:26:45;;;;;;;8.23;1.70;;;;;;;;;;5048840;28;20028;-70
2024/03/01 00:29:11;;;;;;;4.03;0.82;;;;;;;;;;5050492;28;20396;-71
2024/03/01 00:31:37;;;;;;;6.22;1.30;;;;;;;;;;5031054;28;20041;-70
2024/03/01 00:34:02;;;;;;;7.22;1.40;;;;;;;;;;5050454;28;21441;-67
2024/03/01 00:36:27;;;;;;;13.18;1.58;;;;;;;;;;5050019;28;20033;-67
2024/03/01 00:38:53;;;;;;;6.28;1.23;;;;;;;;;;5041958;28;20087;-67
2024/03/01 00:41:18;;;;;;;7.93;1.20;;;;;;;;;;5041966;28;20113;-70
2024/03/01 00:43:43;;;;;;;7.90;1.48;;;;;;;;;;5045339;28;20037;-71
2024/03/01 00:46:09;;;;;;;6.10;1.30;;;;;;;;;;5052456;28;20044;-70
2024/03/01 00:48:34;;;;;;;14.60;1.27;;;;;;;;;;5035042;28;20044;-69
2024/03/01 00:50:59;;;;;;;6.25;1.50;;;;;;;;;;5052582;28;20049;-70
2024/03/01 00:53:25;;;;;;;4.53;1.52;;;;;;;;;;5053113;28;20508;-66
2024/03/01 00:55:50;;;;;;;7.05;1.13;;;;;;;;;;5034328;28;20032;-67
2024/03/01 00:58:16;;;;;;;6.40;1.20;;;;;;;;;;5053042;28;20033;-69
2024/03/01 01:00:42;;;;;;;2.45;1.63;;;;;;;;;;5051173;28;20033;-70
2024/03/01 01:03:07;;;;;;;3.80;1.40;;;;;;;;;;5034602;28;20533;-68
2024/03/01 01:05:33;;;;;;;8.00;1.45;;;;;;;;;;5052317;28;20426;-69
2024/03/01 01:07:58;;;;;;;4.30;1.80;;;;;;;;;;5052499;28;20045;-68
2024/03/01 01:10:23;;;;;;;9.32;1.45;;;;;;;;;;5052453;28;20036;-67
2024/03/01 01:12:49;;;;;;;4.13;1.50;;;;;;;;;;5052792;28;20024;-68
2024/03/01 01:15:14;;;;;;;9.57;1.30;;;;;;;;;;5052407;28;20042;-68
2024/03/01 01:17:39;;;;;;;2.25;0.77;;;;;;;;;;5051879;28;20044;-67
2024/03/01 01:20:05;;;;;;;6.38;1.25;;;;;;;;;;5052053;28;20033;-69
2024/03/01 01:22:31;;;;;;;2.33;1.02;;;;;;;;;;5051243;28;20464;-69
2024/03/01 01:24:56;;;;;;;2.22;1.05;;;;;;;;;;5052214;28;20103;-68
2024/03/01 01:27:22;;;;;;;8.25;1.05;;;;;;;;;;5052288;28;20036;-70
2024/03/01 01:29:47;;;;;;;12.95;1.23;;;;;;;;;;5051784;28;20112;-69
2024/03/01 01:32:12;;;;;;;3.08;0.98;;;;;;;;;;5052134;28;20453;-68
2024/03/01 01:34:38;;;;;;;3.85;2.03;;;;;;;;;;5051680;28;20045;-68
2024/03/01 01:37:03;;;;;;;4.68;1.50;;;;;;;;;;5051681;28;20037;-68
2024/03/01 01:39:29;;;;;;;4.68;1.52;;;;;;;;;;5051629;28;20075;-69
2024/03/01 01:41:55;;;;;;;5.38;1.80;;;;;;;;;;5051649;28;20032;-69
2024/03/01 01:44:20;;;;;;;2.75;1.23;;;;;;;;;;5034120;28;20044;-67
2024/03/01 01:46:48;;;;;;;3.67;1.40;;;;;;;;;;5051729;28;20115;-68
2024/03/01 01:49:14;;;;;;;4.65;1.05;;;;;;;;;;5033438;28;20095;-68
2024/03/01 01:51:41;;;;;;;8.05;1.67;;;;;;;;;;5030534;28;20037;-69
2024/03/01 01:54:07;;;;;;;3.17;1.02;;;;;;;;;;5034445;28;20086;-68
2024/03/01 01:56:32;;;;;;;2.35;1.40;;;;;;;;;;5048966;28;20068;-68
2024/03/01 01:58:58;;;;;;;10.77;1.85;;;;;;;;;;5034031;28;20446;-69
2024/03/01 02:01:23;;;;;;;7.90;1.30;;;;;;;;;;5051497;28;20040;-67
2024/03/01 02:03:49;;;;;;;5.95;1.90;;;;;;;;;;5033187;28;20033;-68
2024/03/01 02:06:14;;;;;;;6.55;2.75;;;;;;;;;;5033882;28;20037;-68
2024/03/01 02:08:40;;;;;;;13.32;2.95;;;;;;;;;;5051463;28;20032;-68
2024/03/01 02:11:05;;;;;;;13.85;1.35;;;;;;;;;;5033916;28;20119;-69
2024/03/01 02:13:31;;;;;;;6.53;1.77;;;;;;;;;;5051247;28;20068;-69
2024/03/01 02:15:57;;;;;;;8.38;1.48;;;;;;;;;;5051120;28;20028;-69
2024/03/01 02:18:22;;;;;;;6.05;1.75;;;;;;;;;;5051209;28;20059;-71
2024/03/01 02:21:03;;;;;;;17.02;2.33;;;;;;;;;;5032854;28;20072;-69
2024/03/01 02:23:29;;;;;;;7.78;1.60;;;;;;;;;;5044065;28;20033;-68
2024/03/01 02:25:54;;;;;;;15.60;2.65;;;;;;;;;;5051088;28;20045;-70
2024/03/01 02:28:20;;;;;;;14.93;2.67;;;;;;;;;;5033123;28;20024;-70
2024/03/01 02:30:45;;;;;;;4.05;1.98;;;;;;;;;;5050563;28;20036;-67
2024/03/01 02:33:11;;;;;;;22.15;2.67;;;;;;;;;;5050698;28;20396;-69
2024/03/01 02:35:36;;;;;;;5.72;1.45;;;;;;;;;;5032408;28;20056;-68
2024/03/01 02:38:02;;;;;;;6.55;1.33;;;;;;;;;;5032949;28;20461;-68
2024/03/01 02:40:27;;;;;;;21.50;1.95;;;;;;;;;;5051193;28;20036;-68
2024/03/01 02:42:53;;;;;;;15.68;1.95;;;;;;;;;;5050300;28;20096;-69
2024/03/01 02:45:18;;;;;;;8.23;2.10;;;;;;;;;;5050623;28;20032;-69
2024/03/01 02:47:43;;;;;;;6.82;2.05;;;;;;;;;;5051036;28;20033;-68
2024/03/01 02:50:09;;;;;;;7.35;2.20;;;;;;;;;;5050493;28;20092;-69
2024/03/01 02:52:35;;;;;;;8.82;1.83;;;;;;;;;;5050416;28;20075;-68
2024/03/01 02:55:01;;;;;;;10.43;2.13;;;;;;;;;;5050964;28;20103;-68
2024/03/01 02:57:26;;;;;;;10.70;1.13;;;;;;;;;;5050245;28;20028;-69
2024/03/01 02:59:52;;;;;;;10.30;1.42;;;;;;;;;;5032087;28;20033;-68
2024/03/01 03:02:17;;;;;;;0.75;0.38;;;;;;;;;;5050183;28;20025;-68
2024/03/01 03:04:43;;;;;;;20.05;1.75;;;;;;;;;;5050316;28;20530;-69
2024/03/01 03:07:08;;;;;;;9.95;2.33;;;;;;;;;;5049846;28;20033;-68
2024/03/01 03:09:34;;;;;;;4.00;1.27;;;;;;;;;;5050770;28;20128;-68
2024/03/01 03:11:59;;;;;;;4.70;1.85;;;;;;;;;;5050599;28;20029;-68
2024/03/01 03:14:24;;;;;;;11.45;2.42;;;;;;;;;;5049524;28;20124;-68
2024/03/01 03:16:50;;;;;;;3.25;1.00;;;;;;;;;;5050227;28;20041;-68
2024/03/01 03:19:17;;;;;;;4.05;0.88;;;;;;;;;;5050043;28;20119;-70
2024/03/01 03:21:42;;;;;;;1.67;0.60;;;;;;;;;;5049689;28;20468;-69
2024/03/01 03:24:08;;;;;;;3.75;1.15;;;;;;;;;;5032492;28;20033;-68
2024/03/01 03:26:34;;;;;;;1.13;0.65;;;;;;;;;;5050153;28;20031;-68
2024/03/01 03:29:00;;;;;;;7.43;1.10;;;;;;;;;;5031878;28;20126;-68
2024/03/01 03:31:25;;;;;;;4.47;0.63;;;;;;;;;;5049614;28;20072;-69
2024/03/01 03:33:50;;;;;;;2.42;0.70;;;;;;;;;;5031554;28;20025;-68
2024/03/01 03:36:16;;;;;;;3.65;1.10;;;;;;;;;;5050000;28;20071;-71
2024/03/01 03:38:41;;;;;;;3.67;0.45;;;;;;;;;;5032042;28;20041;-69
2024/03/01 03:41:08;;;;;;;7.93;1.45;;;;;;;;;;5049508;28;20556;-69
2024/03/01 03:43:33;;;;;;;1.00;0.43;;;;;;;;;;5032454;28;20025;-69
2024/03/01 03:45:58;;;;;;;5.47;0.93;;;;;;;;;;5048615;28;20044;-68
2024/03/01 03:48:24;;;;;;;2.95;0.70;;;;;;;;;;5032218;28;20041;-71
2024/03/01 03:50:49;;;;;;;4.82;0.77;;;;;;;;;;5049881;28;20048;-69
2024/03/01 03:53:15;;;;;;;3.97;0.82;;;;;;;;;;5049503;28;20491;-69
2024/03/01 03:55:40;;;;;;;2.08;0.98;;;;;;;;;;5032361;28;20025;-69
2024/03/01 03:58:06;;;;;;;4.03;0.82;;;;;;;;;;5049858;28;20516;-70
2024/03/01 04:00:31;;;;;;;3.83;1.00;;;;;;;;;;5049279;28;20075;-71
2024/03/01 04:02:56;;;;;;;4.35;1.40;;;;;;;;;;5044521;28;20028;-67
2024/03/01 04:05:22;;;;;;;8.35;1.30;;;;;;;;;;5031681;28;20121;-70
2024/03/01 04:07:47;;;;;;;5.97;1.88;;;;;;;;;;5049343;28;20041;-70
2024/03/01 04:10:13;;;;;;;6.00;1.45;;;;;;;;;;5049704;28;20036;-68
2024/03/01 04:12:38;;;;;;;10.50;1.50;;;;;;;;;;5049927;28;20044;-69
2024/03/01 04:15:07;;;;;;;2.95;0.93;;;;;;;;;;5049303;28;20440;-70
2024/03/01 04:17:33;;;;;;;1.95;1.15;;;;;;;;;;5028029;28;20048;-68
2024/03/01 04:19:59;;;;;;;4.18;0.38;;;;;;;;;;5048804;28;20067;-69
2024/03/01 04:22:24;;;;;;;4.00;0.70;;;;;;;;;;5049305;28;20416;-68
2024/03/01 04:24:49;;;;;;;4.47;1.05;;;;;;;;;;5049429;28;20029;-69
2024/03/01 04:27:15;;;;;;;4.60;1.27;;;;;;;;;;5049961;28;20111;-69
2024/03/01 04:29:40;;;;;;;7.43;1.42;;;;;;;;;;5049809;28;20135;-70
2024/03/01 04:32:08;;;;;;;4.20;0.77;;;;;;;;;;5046417;28;20064;-68
2024/03/01 04:34:34;;;;;;;10.45;1.75;;;;;;;;;;5048837;28;20111;-69
2024/03/01 04:36:59;;;;;;;7.38;1.48;;;;;;;;;;5049556;28;20123;-68
2024/03/01 04:39:25;;;;;;;3.63;0.93;;;;;;;;;;5049316;28;20159;-69
2024/03/01 04:41:51;;;;;;;6.32;0.82;;;;;;;;;;5049709;28;20029;-68
2024/03/01 04:44:16;;;;;;;4.28;0.82;;;;;;;;;;5031569;28;20509;-68
2024/03/01 04:46:42;;;;;;;6.55;1.33;;;;;;;;;;5049065;28;20048;-70
2024/03/01 04:49:07;;;;;;;2.65;0.52;;;;;;;;;;5030285;28;20119;-69
2024/03/01 04:51:33;;;;;;;11.25;1.92;;;;;;;;;;5049526;28;20041;-69
2024/03/01 04:53:58;;;;;;;14.90;1.17;;;;;;;;;;5052512;28;20163;-69
2024/03/01 04:56:23;;;;;;;3.80;1.05;;;;;;;;;;5052384;28;20032;-69
2024/03/01 04:58:49;;;;;;;0.47;0.13;;;;;;;;;;5053260;28;20029;-69
2024/03/01 05:01:15;;;;;;;4.75;0.60;;;;;;;;;;5034810;28;20124;-68
2024/03/01 05:03:43;;;;;;;7.95;0.98;;;;;;;;;;5052085;28;20044;-69
2024/03/01 05:06:09;;;;;;;8.38;1.02;;;;;;;;;;5034544;28;20041;-70
2024/03/01 05:08:34;;;;;;;2.38;0.43;;;;;;;;;;5052537;28;20048;-68
2024/03/01 05:10:59;;;;;;;3.28;0.95;;;;;;;;;;5051988;28;20041;-69
2024/03/01 05:13:25;;;;;;;17.42;0.82;;;;;;;;;;5052639;28;20040;-69
2024/03/01 05:15:51;;;;;;;2.45;0.85;;;;;;;;;;5052450;28;20150;-69
2024/03/01 05:18:17;;;;;;;0.73;0.30;;;;;;;;;;5052333;28;20500;-69
2024/03/01 05:20:43;;;;;;;7.00;1.83;;;;;;;;;;5034018;28;20615;-69
2024/03/01 05:23:08;;;;;;;14.73;1.83;;;;;;;;;;5034268;28;20039;-68
2024/03/01 05:25:33;;;;;;;7.97;1.25;;;;;;;;;;5051817;28;20025;-69
2024/03/01 05:27:59;;;;;;;11.40;1.63;;;;;;;;;;5052459;28;20072;-69
2024/03/01 05:30:24;;;;;;;2.40;0.70;;;;;;;;;;5051976;28;20588;-68
2024/03/01 05:32:54;;;;;;;12.05;1.60;;;;;;;;;;5052128;28;20032;-69
2024/03/01 05:35:20;;;;;;;12.52;1.98;;;;;;;;;;5051685;28;20462;-69
2024/03/01 05:37:46;;;;;;;3.35;0.43;;;;;;;;;;5052026;28;20033;-69
2024/03/01 05:40:16;;;;;;;7.65;0.70;;;;;;;;;;5051844;28;20029;-68
2024/03/01 05:42:43;;;;;;;7.50;0.65;;;;;;;;;;5051528;28;20040;-69
2024/03/01 05:45:09;;;;;;;1.52;0.55;;;;;;;;;;5034389;28;20037;-69
2024/03/01 05:47:35;;;;;;;4.40;0.73;;;;;;;;;;5052328;28;20044;-68
2024/03/01 05:50:05;;;;;;;0.55;0.35;;;;;;;;;;5051063;28;20491;-69
2024/03/01 05:52:31;;;;;;;5.75;2.28;;;;;;;;;;5044937;28;20021;-69
2024/03/01 05:54:56;;;;;;;0.85;0.30;;;;;;;;;;5034000;28;20040;-68
2024/03/01 05:57:22;;;;;;;1.55;0.52;;;;;;;;;;5051461;28;20032;-68
2024/03/01 05:59:47;;;;;;;1.83;0.60;;;;;;;;;;5051871;28;20041;-68
2024/03/01 06:02:12;;;;;;;0.85;0.20;;;;;;;;;;5051307;28;20048;-68
2024/03/01 06:04:39;;;;;;;0.38;0.20;;;;;;;;;;5050241;28;20033;-68
2024/03/01 06:07:05;;;;;;;8.52;0.75;;;;;;;;;;5033111;28;20473;-67
2024/03/01 06:09:30;;;;;;;2.13;0.38;;;;;;;;;;5051201;28;20040;-68
2024/03/01 06:11:55;;;;;;;0.38;0.17;;;;;;;;;;5051226;28;20603;-68
2024/03/01 06:14:21;;;;;;;2.33;0.85;;;;;;;;;;5051182;28;20033;-67
2024/03/01 06:16:47;;;;;;;0.28;0.20;;;;;;;;;;5051601;28;20025;-67
2024/03/01 06:19:12;;;;;;;0.10;0.10;;;;;;;;;;5033203;28;20036;-67
2024/03/01 06:21:38;;;;;;;1.10;0.30;;;;;;;;;;5050673;28;20029;-68
2024/03/01 06:24:03;;;;;;;0.85;0.68;;;;;;;;;;5050981;28;20627;-68
2024/03/01 06:26:29;;;;;;;0.73;0.30;;;;;;;;;;5050927;28;20040;-67
2024/03/01 06:28:55;;;;;;;0.20;0.20;;;;;;;;;;5051081;28;20029;-67
2024/03/01 06:31:20;;;;;;;0.10;0.10;;;;;;;;;;5051071;28;20079;-68
2024/03/01 06:33:45;;;;;;;2.75;0.40;;;;;;;;;;5051024;28;20051;-68
2024/03/01 06:36:11;;;;;;;2.38;0.40;;;;;;;;;;5050309;28;20453;-68
2024/03/01 06:38:38;;;;;;;0.10;0.10;;;;;;;;;;5051136;28;20029;-68
2024/03/01 06:41:05;;;;;;;0.10;0.10;;;;;;;;;;5050699;28;20037;-67
2024/03/01 06:43:30;;;;;;;0.65;0.25;;;;;;;;;;5050557;28;20036;-68
2024/03/01 06:45:55;;;;;;;0.28;0.20;;;;;;;;;;5051151;28;20071;-67
2024/03/01 06:48:21;;;;;;;1.23;0.20;;;;;;;;;;5049789;28;20480;-68
2024/03/01 06:50:46;;;;;;;0.85;0.40;;;;;;;;;;5050356;28;20041;-69
2024/03/01 06:53:12;;;;;;;3.47;0.52;;;;;;;;;;5050989;28;20357;-68
2024/03/01 06:55:37;;;;;;;1.98;0.47;;;;;;;;;;5050359;28;20037;-68
2024/03/01 06:58:03;;;;;;;0.65;0.50;;;;;;;;;;5051213;28;20025;-68
2024/03/01 07:00:28;;;;;;;0.52;0.25;;;;;;;;;;5050153;28;20033;-68
2024/03/01 07:02:54;;;;;;;2.40;0.30;;;;;;;;;;5050564;28;20041;-70
2024/03/01 07:05:20;;;;;;;0.63;0.30;;;;;;;;;;5050295;28;20047;-70
2024/03/01 07:07:45;;;;;;;4.97;0.60;;;;;;;;;;5049652;28;20107;-69
2024/03/01 07:10:10;;;;;;;0.98;0.32;;;;;;;;;;5050043;28;20040;-71
2024/03/01 07:12:36;;;;;;;1.58;0.45;;;;;;;;;;5049522;28;20083;-70
2024/03/01 07:15:03;;;;;;;0.50;0.35;;;;;;;;;;5050248;28;20039;-70
2024/03/01 07:17:28;;;;;;;4.00;0.52;;;;;;;;;;5050062;28;20041;-70
2024/03/01 07:19:53;;;;;;;4.22;0.60;;;;;;;;;;5049866;28;20492;-70
2024/03/01 07:22:19;;;;;;;3.63;0.63;;;;;;;;;;5049798;28;20036;-68
2024/03/01 07:24:44;;;;;;;3.63;0.80;;;;;;;;;;5050006;28;20071;-67
2024/03/01 07:27:09;;;;;;;6.60;0.75;;;;;;;;;;5049834;28;20033;-68
2024/03/01 07:29:35;;;;;;;3.97;1.00;;;;;;;;;;5050147;28;20036;-70
2024/03/01 07:32:00;;;;;;;3.25;1.00;;;;;;;;;;5048901;28;20041;-71
2024/03/01 07:34:26;;;;;;;3.92;0.73;;;;;;;;;;5048799;28;20091;-69
2024/03/01 07:36:51;;;;;;;3.53;0.40;;;;;;;;;;5050190;28;20049;-70
2024/03/01 07:39:17;;;;;;;2.53;0.52;;;;;;;;;;5049044;28;20614;-71
2024/03/01 07:41:42;;;;;;;3.53;0.50;;;;;;;;;;5049084;28;20040;-70
2024/03/01 07:44:08;;;;;;;3.92;0.50;;;;;;;;;;5048539;28;20439;-70
2024/03/01 07:46:33;;;;;;;1.30;0.50;;;;;;;;;;5049718;28;20041;-69
2024/03/01 07:48:58;;;;;;;6.78;0.75;;;;;;;;;;5050292;28;20040;-69
2024/03/01 07:51:24;;;;;;;1.98;0.80;;;;;;;;;;5050482;28;20032;-69
2024/03/01 07:53:49;;;;;;;5.38;1.00;;;;;;;;;;5049759;28;20049;-69
2024/03/01 07:56:14;;;;;;;1.15;0.47;;;;;;;;;;5058293;28;20029;-70
2024/03/01 07:58:40;;;;;;;1.38;0.75;;;;;;;;;;5052582;28;20037;-69
2024/03/01 08:01:07;;;;;;;2.08;0.70;;;;;;;;;;5049838;28;20040;-69
2024/03/01 08:03:34;;;;;;;2.20;0.80;;;;;;;;;;5049690;28;20033;-69
2024/03/01 08:05:59;;;;;;;2.20;0.68;;;;;;;;;;5030626;28;20887;-69
2024/03/01 08:08:46;;;;;;;2.55;0.70;;;;;;;;;;5048970;28;20045;-71
2024/03/01 08:11:11;;;;;;;4.20;0.98;;;;;;;;;;5043418;28;20123;-69
2024/03/01 08:13:37;;;;;;;3.92;0.60;;;;;;;;;;5049519;28;20109;-69
2024/03/01 08:16:08;;;;;;;0.57;0.40;;;;;;;;;;5049687;28;20106;-70
2024/03/01 08:18:37;;;;;;;5.00;0.90;;;;;;;;;;5031826;28;20033;-69
2024/03/01 08:21:06;;;;;;;3.95;1.15;;;;;;;;;;5031073;28;20036;-70
2024/03/01 08:23:38;;;;;;;1.98;0.80;;;;;;;;;;5042926;28;20430;-69
2024/03/01 08:26:04;;;;;;;4.10;1.15;;;;;;;;;;5016676;28;20033;-69
2024/03/01 08:28:31;;;;;;;1.52;0.77;;;;;;;;;;5034059;28;20052;-70
2024/03/01 08:30:56;;;;;;;0.47;0.38;;;;;;;;;;5035237;28;20037;-69
2024/03/01 08:33:21;;;;;;;1.83;1.00;;;;;;;;;;5051425;28;20059;-70
2024/03/01 08:35:47;;;;;;;5.57;0.50;;;;;;;;;;5051381;28;20527;-70
2024/03/01 08:38:35;;;;;;;3.78;0.40;;;;;;;;;;5034733;28;20036;-69
2024/03/01 08:41:03;;;;;;;1.45;0.63;;;;;;;;;;5048947;28;20120;-69
2024/03/01 08:43:29;;;;;;;6.68;0.70;;;;;;;;;;5052695;28;20041;-70
2024/03/01 08:45:54;;;;;;;1.42;0.60;;;;;;;;;;5050843;28;20086;-69
2024/03/01 08:48:20;;;;;;;4.35;0.80;;;;;;;;;;5052771;28;20087;-69
2024/03/01 08:50:52;;;;;;;6.55;1.00;;;;;;;;;;5053099;28;20499;-70
2024/03/01 08:53:55;;;;;;;2.80;1.20;;;;;;;;;;5034623;28;20044;-70
2024/03/01 08:56:21;;;;;;;3.90;0.70;;;;;;;;;;5033835;28;20098;-69
2024/03/01 08:58:47;;;;;;;2.17;0.90;;;;;;;;;;5035343;28;20072;-69
2024/03/01 09:01:25;;;;;;;18.10;3.92;;;;;;;;;;5050523;28;20025;-69
2024/03/01 09:03:51;;;;;;;14.18;4.45;;;;;;;;;;5052447;28;20106;-69
2024/03/01 09:06:17;;;;;;;18.88;4.95;;;;;;;;;;5052001;28;20566;-69
2024/03/01 09:08:43;;;;;;;4.10;2.13;;;;;;;;;;5052988;28;20029;-69
2024/03/01 09:11:11;;;;;;;4.82;1.52;;;;;;;;;;5043756;28;20065;-69
2024/03/01 09:13:36;;;;;;;5.85;1.95;;;;;;;;;;5034635;28;20494;-69
2024/03/01 09:16:03;;;;;;;12.68;2.60;;;;;;;;;;5034194;28;20037;-70
2024/03/01 09:18:34;;;;;;;13.05;3.30;;;;;;;;;;5052537;28;20068;-70
2024/03/01 09:21:00;;;;;;;5.30;1.00;;;;;;;;;;5052350;28;20052;-69
2024/03/01 09:23:25;;;;;;;7.20;1.52;;;;;;;;;;5052459;28;20492;-69
2024/03/01 09:26:04;;;;;;;13.35;1.83;;;;;;;;;;5051324;28;20097;-69
2024/03/01 09:28:29;;;;;;;14.02;2.30;;;;;;;;;;5033689;28;20507;-68
2024/03/01 09:30:56;;;;;;;5.65;0.85;;;;;;;;;;5051796;28;20040;-69
2024/03/01 09:33:22;;;;;;;5.20;1.40;;;;;;;;;;5051865;28;20036;-69
2024/03/01 09:35:50;;;;;;;1.48;0.52;;;;;;;;;;5033106;28;20079;-69
2024/03/01 09:38:16;;;;;;;7.65;1.15;;;;;;;;;;5051236;28;20087;-69
2024/03/01 09:40:50;;;;;;;8.98;1.02;;;;;;;;;;5031967;28;20033;-69
2024/03/01 09:43:38;;;;;;;2.28;0.75;;;;;;;;;;5032057;28;20102;-70
2024/03/01 09:46:29;;;;;;;3.05;1.10;;;;;;;;;;5038276;28;20037;-69
2024/03/01 09:49:30;;;;;;;5.65;1.05;;;;;;;;;;5009298;28;20061;-69
2024/03/01 09:52:08;;;;;;;6.47;1.67;;;;;;;;;;5050932;28;20041;-69
2024/03/01 09:54:55;;;;;;;3.90;1.00;;;;;;;;;;5032407;28;20119;-69
2024/03/01 09:57:26;;;;;;;5.05;1.13;;;;;;;;;;5028227;28;20055;-71
2024/03/01 09:59:58;;;;;;;4.05;0.98;;;;;;;;;;5051263;28;20052;-70
2024/03/01 10:02:31;;;;;;;1.58;0.73;;;;;;;;;;4995395;28;21598;-72
2024/03/01 10:05:36;;;;;;;8.50;1.50;;;;;;;;;;5026990;28;20064;-71
2024/03/01 10:08:26;;;;;;;3.00;1.02;;;;;;;;;;4999822;28;20049;-71
2024/03/01 10:11:15;;;;;;;7.30;1.15;;;;;;;;;;5047557;28;20417;-69
2024/03/01 10:13:58;;;;;;;2.67;0.90;;;;;;;;;;5036384;28;20123;-70
2024/03/01 10:16:33;;;;;;;6.65;1.52;;;;;;;;;;5046556;28;20082;-70
2024/03/01 10:19:07;;;;;;;1.45;1.00;;;;;;;;;;5028367;28;20505;-71
2024/03/01 10:21:57;;;;;;;3.00;0.80;;;;;;;;;;5046825;28;20052;-70
2024/03/01 10:25:11;;;;;;;5.15;1.27;;;;;;;;;;5025379;28;20056;-70
2024/03/01 10:27:37;;;;;;;4.75;1.58;;;;;;;;;;4949583;28;20980;-70
2024/03/01 10:30:24;;;;;;;2.35;1.00;;;;;;;;;;5027590;28;20060;-72
2024/03/01 10:33:13;;;;;;;8.85;1.25;;;;;;;;;;5031086;28;20032;-69
2024/03/01 10:35:55;;;;;;;4.65;1.20;;;;;;;;;;5046386;28;20080;-70
2024/03/01 10:38:46;;;;;;;7.32;1.15;;;;;;;;;;5021889;28;20123;-72
2024/03/01 10:41:24;;;;;;;3.47;1.40;;;;;;;;;;4995683;28;20813;-72
2024/03/01 10:44:12;;;;;;;2.67;0.93;;;;;;;;;;5017435;28;20080;-70
2024/03/01 10:46:59;;;;;;;2.45;0.63;;;;;;;;;;4999814;28;20049;-71
2024/03/01 10:49:51;;;;;;;3.85;0.70;;;;;;;;;;5004568;28;20044;-72
2024/03/01 10:52:18;;;;;;;2.28;0.68;;;;;;;;;;5015893;28;20542;-71
2024/03/01 10:54:49;;;;;;;5.60;0.90;;;;;;;;;;5012930;28;20068;-73
2024/03/01 10:57:17;;;;;;;5.95;1.10;;;;;;;;;;4998634;28;20032;-70
2024/03/01 10:59:48;;;;;;;5.03;1.00;;;;;;;;;;5016217;28;20539;-71
2024/03/01 11:02:24;;;;;;;2.60;0.98;;;;;;;;;;4999346;28;20032;-72
2024/03/01 11:05:02;;;;;;;8.90;1.20;;;;;;;;;;5003123;28;20049;-70
2024/03/01 11:07:33;;;;;;;4.05;1.20;;;;;;;;;;4996601;28;20052;-71
2024/03/01 11:10:12;;;;;;;2.83;0.88;;;;;;;;;;5010230;28;20041;-70
2024/03/01 11:12:58;;;;;;;4.75;0.88;;;;;;;;;;5000493;28;20043;-70
2024/03/01 11:15:26;;;;;;;4.53;0.77;;;;;;;;;;4999432;28;20037;-70
2024/03/01 11:17:53;;;;;;;7.68;1.23;;;;;;;;;;4999523;28;20035;-71
2024/03/01 11:20:42;;;;;;;8.40;1.30;;;;;;;;;;4999918;28;20500;-71
2024/03/01 11:23:26;;;;;;;8.63;1.00;;;;;;;;;;5010905;28;20570;-70
2024/03/01 11:25:57;;;;;;;11.48;1.85;;;;;;;;;;4998356;28;20033;-71
2024/03/01 11:28:25;;;;;;;13.02;2.47;;;;;;;;;;5016994;28;21074;-70
2024/03/01 11:30:54;;;;;;;6.45;1.42;;;;;;;;;;4999491;28;20036;-70
2024/03/01 11:33:22;;;;;;;7.28;1.00;;;;;;;;;;4998807;28;20534;-72
2024/03/01 11:35:56;;;;;;;9.82;1.60;;;;;;;;;;5017827;28;20156;-71
2024/03/01 11:38:33;;;;;;;7.30;1.02;;;;;;;;;;5015361;28;20099;-72
2024/03/01 11:41:10;;;;;;;13.40;1.90;;;;;;;;;;5017237;28;20048;-71
2024/03/01 11:43:57;;;;;;;4.18;0.88;;;;;;;;;;5017458;28;21106;-70
2024/03/01 11:46:48;;;;;;;4.38;1.02;;;;;;;;;;5005112;28;20040;-70
2024/03/01 11:49:46;;;;;;;7.25;1.58;;;;;;;;;;5016620;28;20048;-71
2024/03/01 11:52:24;;;;;;;3.78;1.10;;;;;;;;;;5009467;28;20140;-71
2024/03/01 11:55:05;;;;;;;4.28;0.93;;;;;;;;;;5017530;28;20052;-72
2024/03/01 11:57:44;;;;;;;1.50;0.57;;;;;;;;;;5016891;28;20539;-72
2024/03/01 12:00:34;;;;;;;2.22;0.60;;;;;;;;;;5017252;28;20082;-72
2024/03/01 12:03:35;;;;;;;4.25;1.02;;;;;;;;;;5017930;28;20947;-71
2024/03/01 12:06:22;;;;;;;4.43;0.73;;;;;;;;;;5028686;28;20048;-71
2024/03/01 12:09:17;;;;;;;5.40;0.95;;;;;;;;;;5020956;28;20041;-71
2024/03/01 12:11:50;;;;;;;2.80;0.75;;;;;;;;;;4999778;28;20484;-71
2024/03/01 12:14:19;;;;;;;8.60;1.17;;;;;;;;;;5002862;28;20068;-71
2024/03/01 12:17:00;;;;;;;2.78;0.45;;;;;;;;;;5004506;28;20064;-71
2024/03/01 12:19:35;;;;;;;4.03;0.82;;;;;;;;;;5002772;28;20044;-70
2024/03/01 12:22:03;;;;;;;4.30;0.73;;;;;;;;;;5021732;28;20120;-70
2024/03/01 12:24:32;;;;;;;6.95;0.93;;;;;;;;;;5020221;28;20119;-70
2024/03/01 12:27:04;;;;;;;4.15;0.90;;;;;;;;;;5002961;28;20051;-71
2024/03/01 12:29:44;;;;;;;4.22;1.15;;;;;;;;;;5019736;28;20068;-69
2024/03/01 12:32:22;;;;;;;2.63;0.60;;;;;;;;;;5002486;28;20041;-71
2024/03/01 12:34:58;;;;;;;2.35;0.80;;;;;;;;;;5019741;28;20935;-69
2024/03/01 12:37:43;;;;;;;2.78;0.88;;;;;;;;;;5002116;28;20044;-70
2024/03/01 12:40:18;;;;;;;4.03;0.85;;;;;;;;;;5029360;28;20134;-69
2024/03/01 12:43:13;;;;;;;4.05;0.82;;;;;;;;;;5016846;28;20927;-69
2024/03/01 12:45:50;;;;;;;8.00;1.17;;;;;;;;;;5008864;28;20950;-69
2024/03/01 12:48:22;;;;;;;5.90;1.08;;;;;;;;;;5020150;28;20040;-70
2024/03/01 12:51:08;;;;;;;2.33;0.88;;;;;;;;;;5003454;28;20040;-70
2024/03/01 12:53:43;;;;;;;4.25;1.30;;;;;;;;;;5010375;28;20032;-71
2024/03/01 12:56:25;;;;;;;5.43;1.00;;;;;;;;;;5013090;28;20041;-71
2024/03/01 12:59:03;;;;;;;4.68;1.85;;;;;;;;;;5014354;28;20945;-70
2024/03/01 13:01:36;;;;;;;2.05;0.85;;;;;;;;;;4998316;28;20048;-71
2024/03/01 13:04:28;;;;;;;2.55;0.70;;;;;;;;;;4999481;28;20103;-70
2024/03/01 13:06:54;;;;;;;5.22;0.98;;;;;;;;;;5012886;28;20936;-69
2024/03/01 13:09:30;;;;;;;3.33;0.70;;;;;;;;;;4997786;28;20532;-72
2024/03/01 13:11:58;;;;;;;4.50;0.82;;;;;;;;;;4991568;28;20037;-69
2024/03/01 13:14:39;;;;;;;1.17;0.60;;;;;;;;;;4999996;28;20041;-71
2024/03/01 13:17:26;;;;;;;10.02;1.45;;;;;;;;;;5001150;28;20037;-71
2024/03/01 13:20:27;;;;;;;2.75;0.52;;;;;;;;;;5019419;28;20114;-72
2024/03/01 13:23:01;;;;;;;2.42;1.00;;;;;;;;;;4948088;28;20057;-70
2024/03/01 13:25:36;;;;;;;5.03;0.95;;;;;;;;;;5011595;28;20045;-69
2024/03/01 13:28:12;;;;;;;4.70;0.80;;;;;;;;;;4989968;28;21570;-71
2024/03/01 13:30:39;;;;;;;2.20;0.68;;;;;;;;;;4974094;28;20047;-71
2024/03/01 13:33:22;;;;;;;3.60;0.90;;;;;;;;;;4991830;28;20134;-71
2024/03/01 13:35:51;;;;;;;1.95;0.47;;;;;;;;;;4963467;28;20246;-71
2024/03/01 13:38:22;;;;;;;4.03;0.77;;;;;;;;;;4968253;28;20053;-71
2024/03/01 13:40:51;;;;;;;5.72;0.60;;;;;;;;;;4996450;28;20049;-71
2024/03/01 13:43:23;;;;;;;2.83;0.50;;;;;;;;;;4976606;28;20037;-72
2024/03/01 13:45:53;;;;;;;1.67;0.45;;;;;;;;;;4995865;28;20041;-71
2024/03/01 13:48:23;;;;;;;5.45;0.80;;;;;;;;;;4968783;28;20298;-70
2024/03/01 13:50:49;;;;;;;4.65;0.82;;;;;;;;;;4974852;28;20049;-71
2024/03/01 13:53:15;;;;;;;2.10;0.60;;;;;;;;;;4993148;28;20025;-72
2024/03/01 13:55:41;;;;;;;1.42;0.50;;;;;;;;;;4975450;28;20029;-71
2024/03/01 13:58:08;;;;;;;2.90;0.70;;;;;;;;;;4991640;28;20091;-71
2024/03/01 14:00:35;;;;;;;0.55;0.40;;;;;;;;;;4982474;28;20041;-71
2024/03/01 14:03:01;;;;;;;2.80;0.75;;;;;;;;;;4975864;28;20953;-71
2024/03/01 14:05:28;;;;;;;4.25;0.85;;;;;;;;;;4974505;28;20049;-71
2024/03/01 14:07:54;;;;;;;1.00;0.60;;;;;;;;;;4994492;28;20910;-71
2024/03/01 14:10:21;;;;;;;2.00;0.47;;;;;;;;;;4992974;28;20041;-72
2024/03/01 14:12:47;;;;;;;0.52;0.38;;;;;;;;;;4994462;28;20045;-71
2024/03/01 14:15:12;;;;;;;3.72;1.38;;;;;;;;;;4976400;28;20037;-71
2024/03/01 14:17:39;;;;;;;5.45;1.10;;;;;;;;;;4994376;28;20975;-71
2024/03/01 14:20:11;;;;;;;1.05;0.63;;;;;;;;;;4993816;28;20478;-71
2024/03/01 14:22:41;;;;;;;6.20;1.00;;;;;;;;;;4993270;28;21049;-71
2024/03/01 14:25:16;;;;;;;5.65;0.90;;;;;;;;;;4987632;28;20041;-71
2024/03/01 14:27:54;;;;;;;0.65;0.50;;;;;;;;;;4989765;28;20472;-71
2024/03/01 14:30:21;;;;;;;4.20;0.88;;;;;;;;;;4975808;28;20199;-72
2024/03/01 14:33:11;;;;;;;9.15;0.55;;;;;;;;;;4976411;28;20029;-71
2024/03/01 14:35:39;;;;;;;2.95;0.90;;;;;;;;;;4971121;28;20049;-72
2024/03/01 14:38:11;;;;;;;4.03;0.80;;;;;;;;;;4993207;28;20037;-72
2024/03/01 14:40:36;;;;;;;2.10;0.45;;;;;;;;;;4976287;28;20045;-71
2024/03/01 14:43:06;;;;;;;2.20;0.73;;;;;;;;;;4993240;28;20029;-71
2024/03/01 14:45:41;;;;;;;3.17;0.93;;;;;;;;;;4993517;28;20075;-71
2024/03/01 14:48:08;;;;;;;2.38;0.77;;;;;;;;;;4993872;28;20301;-71
2024/03/01 14:50:41;;;;;;;4.40;1.30;;;;;;;;;;4972666;28;20118;-71
2024/03/01 14:53:13;;;;;;;2.90;0.73;;;;;;;;;;4975257;28;20091;-71
2024/03/01 14:55:38;;;;;;;8.25;0.50;;;;;;;;;;4975688;28;20899;-70